Time;durP1;ratioP1;P1;durP2;ratioP2;P2;SDS_P1;SDS_P2;PMS_P1;PMS_P2;Temp;Humidity;BMP_temperature;BMP_pressure;BME280_temperature;BME280_humidity;BME280_pressure;Samples;Min_cycle;Max_cycle;Signal;HPM_P1;HPM_P2
2023/05/28 00:02:02;;;;;;;160.93;26.13;;;;;;;;;;5062428;28;20052;-64
2023/05/28 00:04:30;;;;;;;6.55;1.13;;;;;;;;;;5063183;28;20045;-64
2023/05/28 00:06:59;;;;;;;3.55;1.45;;;;;;;;;;5060384;28;20083;-64
2023/05/28 00:09:27;;;;;;;3.15;1.20;;;;;;;;;;5064270;28;20593;-65
2023/05/28 00:11:56;;;;;;;2.17;1.63;;;;;;;;;;5067193;28;20049;-65
2023/05/28 00:14:24;;;;;;;2.60;1.33;;;;;;;;;;5060998;28;20075;-65
2023/05/28 00:16:53;;;;;;;2.22;1.40;;;;;;;;;;5062368;28;20109;-65
2023/05/28 00:19:22;;;;;;;1.60;0.90;;;;;;;;;;5062649;28;20036;-65
2023/05/28 00:21:51;;;;;;;3.85;1.25;;;;;;;;;;5063450;28;20052;-64
2023/05/28 00:24:19;;;;;;;2.63;1.10;;;;;;;;;;5061719;28;20156;-65
2023/05/28 00:26:48;;;;;;;4.88;0.98;;;;;;;;;;5061657;28;20101;-64
2023/05/28 00:29:16;;;;;;;4.05;1.00;;;;;;;;;;5059974;28;20064;-65
2023/05/28 00:31:44;;;;;;;3.85;1.23;;;;;;;;;;5062515;28;20052;-65
2023/05/28 00:34:13;;;;;;;6.47;1.40;;;;;;;;;;5061855;28;20051;-65
2023/05/28 00:36:43;;;;;;;3.10;1.10;;;;;;;;;;5063934;28;20052;-65
2023/05/28 00:39:11;;;;;;;5.90;1.00;;;;;;;;;;5063378;28;20064;-64
2023/05/28 00:41:40;;;;;;;4.60;1.98;;;;;;;;;;5061090;28;20105;-65
2023/05/28 00:44:09;;;;;;;2.83;1.00;;;;;;;;;;5064661;28;20051;-65
2023/05/28 00:46:38;;;;;;;1.60;1.17;;;;;;;;;;5062668;28;20048;-65
2023/05/28 00:49:07;;;;;;;7.20;1.50;;;;;;;;;;5063090;28;20393;-65
2023/05/28 00:51:36;;;;;;;4.95;2.50;;;;;;;;;;5066654;28;20052;-65
2023/05/28 00:54:06;;;;;;;3.25;1.67;;;;;;;;;;5061431;28;20044;-64
2023/05/28 00:56:34;;;;;;;4.97;1.15;;;;;;;;;;5061810;28;20072;-64
2023/05/28 00:59:04;;;;;;;2.65;1.27;;;;;;;;;;5060520;28;20052;-65
2023/05/28 01:01:33;;;;;;;2.72;1.70;;;;;;;;;;5061939;28;20424;-65
2023/05/28 01:04:02;;;;;;;1.52;1.02;;;;;;;;;;5085112;22;20143;-69
2023/05/28 01:06:31;;;;;;;6.57;1.50;;;;;;;;;;5073837;28;20048;-69
2023/05/28 01:08:59;;;;;;;3.05;1.20;;;;;;;;;;5074016;28;20125;-69
2023/05/28 01:11:29;;;;;;;9.00;2.17;;;;;;;;;;5073470;28;20083;-69
2023/05/28 01:13:58;;;;;;;6.50;1.52;;;;;;;;;;5073468;28;20056;-69
2023/05/28 01:16:28;;;;;;;1.58;0.93;;;;;;;;;;5073889;28;20048;-69
2023/05/28 01:18:56;;;;;;;4.03;1.23;;;;;;;;;;5073928;28;20053;-69
2023/05/28 01:21:27;;;;;;;2.03;1.33;;;;;;;;;;5073509;28;20114;-69
2023/05/28 01:23:59;;;;;;;2.78;1.33;;;;;;;;;;5073767;28;20136;-68
2023/05/28 01:26:28;;;;;;;2.90;1.75;;;;;;;;;;5072832;28;20068;-68
2023/05/28 01:28:57;;;;;;;2.80;1.50;;;;;;;;;;5073575;28;20048;-69
2023/05/28 01:31:26;;;;;;;1.45;1.20;;;;;;;;;;5073812;28;20044;-69
2023/05/28 01:33:54;;;;;;;1.80;1.27;;;;;;;;;;5062508;28;20052;-69
2023/05/28 01:36:24;;;;;;;2.47;1.25;;;;;;;;;;5060006;28;20053;-69
2023/05/28 01:38:58;;;;;;;2.53;1.20;;;;;;;;;;5064420;28;20090;-69
2023/05/28 01:41:28;;;;;;;2.53;1.40;;;;;;;;;;5061858;28;20047;-69
2023/05/28 01:43:57;;;;;;;2.40;1.67;;;;;;;;;;5062923;28;20052;-69
2023/05/28 01:46:26;;;;;;;3.53;1.60;;;;;;;;;;5059627;28;20048;-69
2023/05/28 01:48:54;;;;;;;3.08;1.20;;;;;;;;;;5061385;28;20044;-69
2023/05/28 01:51:23;;;;;;;2.90;1.38;;;;;;;;;;5061243;28;20048;-69
2023/05/28 01:53:51;;;;;;;4.63;1.50;;;;;;;;;;5061803;28;20438;-69
2023/05/28 01:56:20;;;;;;;2.97;1.17;;;;;;;;;;5064535;28;20044;-68
2023/05/28 01:58:50;;;;;;;3.80;1.75;;;;;;;;;;5059727;28;20045;-69
2023/05/28 02:01:22;;;;;;;1.95;1.27;;;;;;;;;;5064318;28;20105;-69
2023/05/28 02:03:50;;;;;;;4.03;1.00;;;;;;;;;;5063159;28;20075;-69
2023/05/28 02:06:19;;;;;;;2.05;1.30;;;;;;;;;;5061839;28;20052;-69
2023/05/28 02:08:47;;;;;;;4.93;1.45;;;;;;;;;;5063346;28;20131;-69
2023/05/28 02:11:16;;;;;;;1.83;1.00;;;;;;;;;;5063746;28;20132;-69
2023/05/28 02:13:44;;;;;;;1.55;1.23;;;;;;;;;;5059696;28;20084;-69
2023/05/28 02:16:17;;;;;;;2.55;1.35;;;;;;;;;;5062173;28;20090;-69
2023/05/28 02:18:46;;;;;;;1.80;1.17;;;;;;;;;;5061129;28;20133;-69
2023/05/28 02:21:14;;;;;;;3.25;1.15;;;;;;;;;;5060698;28;20519;-69
2023/05/28 02:23:45;;;;;;;2.38;0.88;;;;;;;;;;5060141;28;20052;-69
2023/05/28 02:26:13;;;;;;;2.03;0.95;;;;;;;;;;5059785;28;20044;-69
2023/05/28 02:28:42;;;;;;;2.38;1.58;;;;;;;;;;5062539;28;20048;-69
2023/05/28 02:31:11;;;;;;;3.35;1.20;;;;;;;;;;5064186;28;20059;-69
2023/05/28 02:33:41;;;;;;;6.30;1.20;;;;;;;;;;5061841;28;20057;-69
2023/05/28 02:36:11;;;;;;;5.35;1.63;;;;;;;;;;5060471;28;20036;-69
2023/05/28 02:38:39;;;;;;;1.40;0.98;;;;;;;;;;5061547;28;20044;-69
2023/05/28 02:41:08;;;;;;;2.90;1.05;;;;;;;;;;5062724;28;20041;-69
2023/05/28 02:43:36;;;;;;;2.92;1.35;;;;;;;;;;5065728;28;20183;-68
2023/05/28 02:46:05;;;;;;;2.15;1.13;;;;;;;;;;5063491;28;20045;-69
2023/05/28 02:48:33;;;;;;;3.10;1.08;;;;;;;;;;5065559;28;20049;-69
2023/05/28 02:51:03;;;;;;;1.63;0.85;;;;;;;;;;5066941;28;20094;-69
2023/05/28 02:53:32;;;;;;;4.75;1.50;;;;;;;;;;5065405;28;20143;-69
2023/05/28 02:56:00;;;;;;;2.13;1.08;;;;;;;;;;5063198;28;20207;-69
2023/05/28 02:58:30;;;;;;;4.68;1.08;;;;;;;;;;5066044;28;20048;-69
2023/05/28 03:00:58;;;;;;;2.00;0.80;;;;;;;;;;5063604;28;20052;-68
2023/05/28 03:03:27;;;;;;;5.00;1.80;;;;;;;;;;5063787;28;20048;-68
2023/05/28 03:05:56;;;;;;;2.83;0.85;;;;;;;;;;5064123;28;20053;-69
2023/05/28 03:08:25;;;;;;;10.20;1.60;;;;;;;;;;5064624;28;20044;-69
2023/05/28 03:10:54;;;;;;;3.05;1.80;;;;;;;;;;5065112;28;20044;-68
2023/05/28 03:13:22;;;;;;;2.55;1.10;;;;;;;;;;5064447;28;20044;-69
2023/05/28 03:15:51;;;;;;;3.55;1.27;;;;;;;;;;5067030;28;20674;-69
2023/05/28 03:18:20;;;;;;;5.13;1.35;;;;;;;;;;5066501;28;20128;-68
2023/05/28 03:20:48;;;;;;;5.75;1.52;;;;;;;;;;5065097;28;20048;-69
2023/05/28 03:23:17;;;;;;;1.02;0.60;;;;;;;;;;5061639;28;20135;-69
2023/05/28 03:25:46;;;;;;;4.90;1.48;;;;;;;;;;5065600;28;20076;-68
2023/05/28 03:28:15;;;;;;;2.33;1.35;;;;;;;;;;5064650;28;20049;-69
2023/05/28 03:30:43;;;;;;;3.65;1.15;;;;;;;;;;5063961;28;20137;-69
2023/05/28 03:33:11;;;;;;;3.28;1.30;;;;;;;;;;5065437;28;21656;-69
2023/05/28 03:35:40;;;;;;;1.92;1.13;;;;;;;;;;5065057;28;20048;-69
2023/05/28 03:38:08;;;;;;;1.58;1.02;;;;;;;;;;5063909;28;20180;-69
2023/05/28 03:40:37;;;;;;;1.83;1.00;;;;;;;;;;5064153;28;20110;-69
2023/05/28 03:43:07;;;;;;;7.63;2.20;;;;;;;;;;5065130;28;20053;-69
2023/05/28 03:45:35;;;;;;;1.33;0.88;;;;;;;;;;5064534;28;20044;-69
2023/05/28 03:48:04;;;;;;;4.00;1.00;;;;;;;;;;5065623;28;20076;-69
2023/05/28 03:50:32;;;;;;;62.22;3.85;;;;;;;;;;5066003;28;20575;-68
2023/05/28 03:53:00;;;;;;;3.28;1.60;;;;;;;;;;5064600;28;20097;-69
2023/05/28 03:55:29;;;;;;;4.03;1.55;;;;;;;;;;5066971;28;20087;-69
2023/05/28 03:57:57;;;;;;;1.90;1.10;;;;;;;;;;5064779;28;20087;-69
2023/05/28 04:00:27;;;;;;;2.80;1.42;;;;;;;;;;5065940;28;20463;-69
2023/05/28 04:02:55;;;;;;;2.28;0.85;;;;;;;;;;5061184;28;20076;-69
2023/05/28 04:05:24;;;;;;;4.20;1.25;;;;;;;;;;5063965;28;20115;-69
2023/05/28 04:07:53;;;;;;;7.95;1.58;;;;;;;;;;5065000;28;20048;-69
2023/05/28 04:10:21;;;;;;;1.75;1.10;;;;;;;;;;5063343;28;20131;-68
2023/05/28 04:12:50;;;;;;;5.82;1.60;;;;;;;;;;5067043;28;20052;-69
2023/05/28 04:15:18;;;;;;;1.92;1.02;;;;;;;;;;5062073;28;20125;-69
2023/05/28 04:17:48;;;;;;;3.35;1.00;;;;;;;;;;5064738;28;20052;-69
2023/05/28 04:20:16;;;;;;;6.68;2.05;;;;;;;;;;5062596;28;20086;-69
2023/05/28 04:22:45;;;;;;;3.22;1.30;;;;;;;;;;5061147;28;20048;-69
2023/05/28 04:25:13;;;;;;;2.05;1.13;;;;;;;;;;5064886;28;20374;-69
2023/05/28 04:27:41;;;;;;;2.25;1.35;;;;;;;;;;5062788;28;20045;-69
2023/05/28 04:30:11;;;;;;;1.92;1.23;;;;;;;;;;5065838;28;20826;-69
2023/05/28 04:32:39;;;;;;;4.13;1.25;;;;;;;;;;5063865;28;20053;-69
2023/05/28 04:35:10;;;;;;;4.75;1.30;;;;;;;;;;5060647;28;20051;-68
2023/05/28 04:37:39;;;;;;;6.78;1.40;;;;;;;;;;5061713;28;20051;-69
2023/05/28 04:40:11;;;;;;;3.40;1.58;;;;;;;;;;5066046;28;20053;-68
2023/05/28 04:42:40;;;;;;;3.50;0.88;;;;;;;;;;5062344;28;20469;-69
2023/05/28 04:45:09;;;;;;;2.30;1.20;;;;;;;;;;5061704;28;20079;-68
2023/05/28 04:47:37;;;;;;;6.43;1.33;;;;;;;;;;5064982;28;20503;-69
2023/05/28 04:50:06;;;;;;;4.22;1.48;;;;;;;;;;5060622;28;20539;-69
2023/05/28 04:52:37;;;;;;;3.08;1.05;;;;;;;;;;5061002;28;20102;-69
2023/05/28 04:55:06;;;;;;;2.53;1.25;;;;;;;;;;5062616;28;20053;-69
2023/05/28 04:57:34;;;;;;;1.00;0.77;;;;;;;;;;5066161;28;20496;-69
2023/05/28 05:00:03;;;;;;;3.10;1.40;;;;;;;;;;5062307;28;20045;-69
2023/05/28 05:02:32;;;;;;;2.28;1.10;;;;;;;;;;5062387;28;20577;-68
2023/05/28 05:05:00;;;;;;;1.58;0.90;;;;;;;;;;5061584;28;20079;-69
2023/05/28 05:07:28;;;;;;;2.67;1.25;;;;;;;;;;5061339;28;20776;-69
2023/05/28 05:09:58;;;;;;;6.95;1.60;;;;;;;;;;5065437;28;20079;-69
2023/05/28 05:12:26;;;;;;;1.95;1.00;;;;;;;;;;5062798;28;20053;-69
2023/05/28 05:14:55;;;;;;;1.70;1.00;;;;;;;;;;5062719;28;20079;-69
2023/05/28 05:17:23;;;;;;;2.67;1.35;;;;;;;;;;5062400;28;20450;-69
2023/05/28 05:19:52;;;;;;;1.58;1.13;;;;;;;;;;5061172;28;20072;-69
2023/05/28 05:22:20;;;;;;;4.07;1.50;;;;;;;;;;5061784;28;20131;-69
2023/05/28 05:24:48;;;;;;;3.00;1.73;;;;;;;;;;5055424;28;20149;-69
2023/05/28 05:27:18;;;;;;;1.60;1.02;;;;;;;;;;5059046;28;20497;-69
2023/05/28 05:29:47;;;;;;;3.22;1.50;;;;;;;;;;5061849;28;20135;-69
2023/05/28 05:32:15;;;;;;;1.25;0.75;;;;;;;;;;5061189;28;20050;-69
2023/05/28 05:34:44;;;;;;;2.97;1.38;;;;;;;;;;5059186;28;20166;-68
2023/05/28 05:37:12;;;;;;;2.47;0.63;;;;;;;;;;5058469;28;20048;-69
2023/05/28 05:39:41;;;;;;;2.58;0.88;;;;;;;;;;5059171;28;20074;-69
2023/05/28 05:42:09;;;;;;;5.07;1.73;;;;;;;;;;5062708;28;20090;-69
2023/05/28 05:44:39;;;;;;;4.07;1.75;;;;;;;;;;5062504;28;20079;-69
2023/05/28 05:47:07;;;;;;;4.32;1.05;;;;;;;;;;5061064;28;20076;-69
2023/05/28 05:49:36;;;;;;;3.22;1.30;;;;;;;;;;5061005;28;20341;-69
2023/05/28 05:52:04;;;;;;;3.17;1.38;;;;;;;;;;5059398;28;20550;-69
2023/05/28 05:54:32;;;;;;;1.38;1.00;;;;;;;;;;5057354;28;21192;-69
2023/05/28 05:57:02;;;;;;;7.30;4.85;;;;;;;;;;5058425;28;20131;-69
2023/05/28 05:59:30;;;;;;;192.68;134.18;;;;;;;;;;5056776;28;20048;-69
2023/05/28 06:02:00;;;;;;;3.60;1.65;;;;;;;;;;5058622;28;20102;-69
2023/05/28 06:04:31;;;;;;;80.25;32.45;;;;;;;;;;5061354;28;20052;-69
2023/05/28 06:07:05;;;;;;;3.60;1.67;;;;;;;;;;5061163;28;20132;-69
2023/05/28 06:09:33;;;;;;;28.40;26.13;;;;;;;;;;5059808;28;20502;-69
2023/05/28 06:12:02;;;;;;;10.90;1.48;;;;;;;;;;5060045;28;20123;-69
2023/05/28 06:14:31;;;;;;;2.95;1.38;;;;;;;;;;5058960;28;20409;-69
2023/05/28 06:17:00;;;;;;;4.00;1.67;;;;;;;;;;5057374;28;20048;-69
2023/05/28 06:19:29;;;;;;;2.88;1.17;;;;;;;;;;5058953;28;20088;-69
2023/05/28 06:21:58;;;;;;;3.33;1.45;;;;;;;;;;5058554;28;20127;-69
2023/05/28 06:24:26;;;;;;;3.97;0.90;;;;;;;;;;5059635;28;20102;-69
2023/05/28 06:26:54;;;;;;;3.53;1.00;;;;;;;;;;5056719;28;20109;-69
2023/05/28 06:29:23;;;;;;;2.92;1.05;;;;;;;;;;5061254;28;20113;-69
2023/05/28 06:31:51;;;;;;;7.88;1.38;;;;;;;;;;5058096;28;20072;-69
2023/05/28 06:34:21;;;;;;;9.30;1.50;;;;;;;;;;5058132;28;20135;-69
2023/05/28 06:36:50;;;;;;;10.35;1.27;;;;;;;;;;5060075;28;20485;-68
2023/05/28 06:39:18;;;;;;;4.38;0.90;;;;;;;;;;5058031;28;20136;-69
2023/05/28 06:41:47;;;;;;;2.63;1.40;;;;;;;;;;5059947;28;20082;-69
2023/05/28 06:44:15;;;;;;;3.28;1.50;;;;;;;;;;5059823;28;20064;-69
2023/05/28 06:46:45;;;;;;;2.83;1.25;;;;;;;;;;5061339;28;20056;-68
2023/05/28 06:49:13;;;;;;;4.80;1.27;;;;;;;;;;5058885;28;20052;-68
2023/05/28 06:51:43;;;;;;;16.38;10.60;;;;;;;;;;5058937;28;20137;-69
2023/05/28 06:54:11;;;;;;;165.02;99.25;;;;;;;;;;5059479;28;20095;-69
2023/05/28 06:56:40;;;;;;;2.95;1.00;;;;;;;;;;5059396;28;20048;-69
2023/05/28 06:59:08;;;;;;;2.30;1.27;;;;;;;;;;5059283;28;20951;-69
2023/05/28 07:01:37;;;;;;;24.50;21.48;;;;;;;;;;5058661;28;20523;-69
2023/05/28 07:04:05;;;;;;;1.98;1.02;;;;;;;;;;5058582;28;20505;-69
2023/05/28 07:06:35;;;;;;;7.13;1.23;;;;;;;;;;5058775;28;20084;-69
2023/05/28 07:09:05;;;;;;;5.53;2.03;;;;;;;;;;5057905;28;20095;-69
2023/05/28 07:11:34;;;;;;;2.42;0.90;;;;;;;;;;5057449;28;20129;-69
2023/05/28 07:14:02;;;;;;;5.68;1.20;;;;;;;;;;5057607;28;20569;-68
2023/05/28 07:16:30;;;;;;;3.53;1.00;;;;;;;;;;5056795;28;20139;-69
2023/05/28 07:18:59;;;;;;;5.75;1.40;;;;;;;;;;5057215;28;20764;-69
2023/05/28 07:21:27;;;;;;;5.55;1.13;;;;;;;;;;5060669;28;20262;-68
2023/05/28 07:23:56;;;;;;;9.82;1.85;;;;;;;;;;5056714;28;20054;-68
2023/05/28 07:26:26;;;;;;;5.15;1.23;;;;;;;;;;5058551;28;20114;-69
2023/05/28 07:28:54;;;;;;;1.38;0.93;;;;;;;;;;5064595;28;20481;-68
2023/05/28 07:31:23;;;;;;;3.13;1.95;;;;;;;;;;5063455;28;20097;-68
2023/05/28 07:33:51;;;;;;;6.57;1.45;;;;;;;;;;5064183;28;20501;-68
2023/05/28 07:36:19;;;;;;;6.50;1.60;;;;;;;;;;5064092;28;20489;-68
2023/05/28 07:38:48;;;;;;;7.68;1.17;;;;;;;;;;5064501;28;20110;-68
2023/05/28 07:41:16;;;;;;;1.55;0.95;;;;;;;;;;5068048;28;20056;-68
2023/05/28 07:43:46;;;;;;;4.60;2.22;;;;;;;;;;5068002;28;20045;-68
2023/05/28 07:46:16;;;;;;;5.82;1.27;;;;;;;;;;5066491;28;20086;-68
2023/05/28 07:48:45;;;;;;;5.45;1.08;;;;;;;;;;5064645;28;20044;-69
2023/05/28 07:51:13;;;;;;;2.95;1.40;;;;;;;;;;5065566;28;20106;-68
2023/05/28 07:53:43;;;;;;;48.15;6.28;;;;;;;;;;5067266;28;20036;-68
2023/05/28 07:56:11;;;;;;;4.15;2.55;;;;;;;;;;5068265;28;20060;-68
2023/05/28 07:58:40;;;;;;;5.88;1.48;;;;;;;;;;5066487;28;20076;-69
2023/05/28 08:01:10;;;;;;;4.47;0.93;;;;;;;;;;5062292;28;20044;-69
2023/05/28 08:03:38;;;;;;;3.08;1.25;;;;;;;;;;5065215;28;20133;-70
2023/05/28 08:06:08;;;;;;;6.78;1.50;;;;;;;;;;5065264;28;20135;-69
2023/05/28 08:08:37;;;;;;;7.25;1.15;;;;;;;;;;5064597;28;20542;-69
2023/05/28 08:11:05;;;;;;;6.25;1.50;;;;;;;;;;5061906;28;20061;-69
2023/05/28 08:13:33;;;;;;;5.57;1.45;;;;;;;;;;5066443;28;20045;-68
2023/05/28 08:16:02;;;;;;;5.88;1.08;;;;;;;;;;5062522;28;20075;-68
2023/05/28 08:18:36;;;;;;;6.07;1.00;;;;;;;;;;5064580;28;20059;-68
2023/05/28 08:21:04;;;;;;;2.97;1.38;;;;;;;;;;5064702;28;20078;-70
2023/05/28 08:23:34;;;;;;;2.78;0.90;;;;;;;;;;5062827;28;20045;-70
2023/05/28 08:26:03;;;;;;;2.85;0.95;;;;;;;;;;5063804;28;20501;-69
2023/05/28 08:28:31;;;;;;;2.78;1.00;;;;;;;;;;5064582;28;20505;-69
2023/05/28 08:31:02;;;;;;;2.92;0.85;;;;;;;;;;5065312;28;20053;-69
2023/05/28 08:33:31;;;;;;;1.80;0.80;;;;;;;;;;5063817;28;20048;-69
2023/05/28 08:36:02;;;;;;;1.27;0.82;;;;;;;;;;5060059;28;20041;-69
2023/05/28 08:38:30;;;;;;;6.00;1.02;;;;;;;;;;5062431;28;20041;-70
2023/05/28 08:40:59;;;;;;;3.75;0.82;;;;;;;;;;5061751;28;20072;-69
2023/05/28 08:43:27;;;;;;;5.70;1.90;;;;;;;;;;5064503;28;20173;-70
2023/05/28 08:45:56;;;;;;;6.60;1.35;;;;;;;;;;5062480;28;20041;-69
2023/05/28 08:48:24;;;;;;;3.90;1.05;;;;;;;;;;5061406;28;20049;-69
2023/05/28 08:50:53;;;;;;;5.18;1.42;;;;;;;;;;5065100;28;20052;-69
2023/05/28 08:53:25;;;;;;;1.95;1.08;;;;;;;;;;5065524;28;20094;-69
2023/05/28 08:55:56;;;;;;;4.13;1.33;;;;;;;;;;5062371;28;20055;-69
2023/05/28 08:58:25;;;;;;;3.00;1.02;;;;;;;;;;5064173;28;20051;-69
2023/05/28 09:00:53;;;;;;;3.95;1.20;;;;;;;;;;5063542;28;20395;-69
2023/05/28 09:03:23;;;;;;;3.05;1.10;;;;;;;;;;5063893;28;20059;-69
2023/05/28 09:05:52;;;;;;;1.67;0.80;;;;;;;;;;5064840;28;20051;-68
2023/05/28 09:08:20;;;;;;;1.95;1.00;;;;;;;;;;5064862;28;20048;-70
2023/05/28 09:10:50;;;;;;;1.75;1.02;;;;;;;;;;5063862;28;20048;-81
2023/05/28 09:13:21;;;;;;;3.88;1.25;;;;;;;;;;5062140;28;20102;-77
2023/05/28 09:15:51;;;;;;;3.00;1.02;;;;;;;;;;5062865;28;20072;-73
2023/05/28 09:18:21;;;;;;;4.53;1.25;;;;;;;;;;5064511;28;20040;-73
2023/05/28 09:20:49;;;;;;;5.10;1.15;;;;;;;;;;5064352;28;20501;-73
2023/05/28 09:23:20;;;;;;;2.83;1.15;;;;;;;;;;5063354;28;20110;-71
2023/05/28 09:25:48;;;;;;;3.20;1.58;;;;;;;;;;5062857;28;20056;-71
2023/05/28 09:28:18;;;;;;;2.42;0.98;;;;;;;;;;5063068;28;20435;-72
2023/05/28 09:30:47;;;;;;;3.97;1.42;;;;;;;;;;5062222;28;20102;-71
2023/05/28 09:33:19;;;;;;;1.17;0.95;;;;;;;;;;5060628;28;20040;-69
2023/05/28 09:35:58;;;;;;;3.20;1.20;;;;;;;;;;5061254;28;20055;-70
2023/05/28 09:38:27;;;;;;;3.25;1.30;;;;;;;;;;5060720;28;20043;-72
2023/05/28 09:40:56;;;;;;;4.40;0.95;;;;;;;;;;5061137;28;20036;-70
2023/05/28 09:43:29;;;;;;;4.00;1.63;;;;;;;;;;5063076;28;20186;-71
2023/05/28 09:46:08;;;;;;;6.50;1.05;;;;;;;;;;5062004;28;20450;-71
2023/05/28 09:48:36;;;;;;;3.17;1.33;;;;;;;;;;5061583;28;20577;-72
2023/05/28 09:51:06;;;;;;;2.45;1.02;;;;;;;;;;5063935;28;20052;-73
2023/05/28 09:53:36;;;;;;;1.58;1.00;;;;;;;;;;5062600;28;20055;-71
2023/05/28 09:56:05;;;;;;;5.88;1.13;;;;;;;;;;5064247;28;20044;-72
2023/05/28 09:58:35;;;;;;;3.88;1.33;;;;;;;;;;5063511;28;20137;-72
2023/05/28 10:01:06;;;;;;;4.28;1.60;;;;;;;;;;5062403;28;20498;-69
2023/05/28 10:03:37;;;;;;;3.25;1.40;;;;;;;;;;5062476;28;20064;-72
2023/05/28 10:06:08;;;;;;;1.85;1.10;;;;;;;;;;5062397;28;20110;-68
2023/05/28 10:08:37;;;;;;;2.00;1.17;;;;;;;;;;5060933;28;20548;-68
2023/05/28 10:11:07;;;;;;;2.72;1.30;;;;;;;;;;5062474;28;20064;-69
2023/05/28 10:13:37;;;;;;;3.83;1.73;;;;;;;;;;5061128;28;20102;-67
2023/05/28 10:16:06;;;;;;;2.83;1.33;;;;;;;;;;5061588;28;20052;-67
2023/05/28 10:18:35;;;;;;;4.78;1.00;;;;;;;;;;5063728;28;20047;-68
2023/05/28 10:21:07;;;;;;;3.35;1.20;;;;;;;;;;5061910;28;20037;-68
2023/05/28 10:23:36;;;;;;;2.90;1.10;;;;;;;;;;5063618;28;20051;-67
2023/05/28 10:26:04;;;;;;;1.42;0.82;;;;;;;;;;5059801;28;20098;-67
2023/05/28 10:28:33;;;;;;;2.25;0.90;;;;;;;;;;5064374;28;20057;-66
2023/05/28 10:31:04;;;;;;;1.80;1.10;;;;;;;;;;5061682;28;20068;-68
2023/05/28 10:33:32;;;;;;;5.25;0.95;;;;;;;;;;5062043;28;20070;-68
2023/05/28 10:36:02;;;;;;;4.45;1.38;;;;;;;;;;5062606;28;20488;-68
2023/05/28 10:38:30;;;;;;;1.73;0.82;;;;;;;;;;5061187;28;20664;-68
2023/05/28 10:41:02;;;;;;;3.13;0.98;;;;;;;;;;5061945;28;20079;-66
2023/05/28 10:43:46;;;;;;;2.72;0.80;;;;;;;;;;5058961;28;20111;-65
2023/05/28 10:46:20;;;;;;;4.85;1.10;;;;;;;;;;5059228;28;20084;-68
2023/05/28 10:49:07;;;;;;;2.60;0.90;;;;;;;;;;5061827;28;20135;-68
2023/05/28 10:52:04;;;;;;;2.35;1.00;;;;;;;;;;5062914;28;20378;-65
2023/05/28 10:54:42;;;;;;;5.55;1.38;;;;;;;;;;5011450;28;20048;-66
2023/05/28 10:57:12;;;;;;;4.32;1.40;;;;;;;;;;5023731;28;20049;-66
2023/05/28 10:59:44;;;;;;;8.65;1.00;;;;;;;;;;5062550;28;20114;-66
2023/05/28 11:02:17;;;;;;;8.07;2.28;;;;;;;;;;5064180;28;20052;-68
2023/05/28 11:04:46;;;;;;;2.38;1.48;;;;;;;;;;5064769;28;20122;-67
2023/05/28 11:07:14;;;;;;;1.98;1.05;;;;;;;;;;5063852;28;20099;-65
2023/05/28 11:09:43;;;;;;;3.10;1.23;;;;;;;;;;5066475;28;20448;-65
2023/05/28 11:12:13;;;;;;;2.17;1.05;;;;;;;;;;5063408;28;20086;-64
2023/05/28 11:14:42;;;;;;;2.50;1.20;;;;;;;;;;5068151;28;20455;-68
2023/05/28 11:17:11;;;;;;;8.23;1.40;;;;;;;;;;5065290;28;20098;-69
2023/05/28 11:19:44;;;;;;;1.38;1.23;;;;;;;;;;5066056;28;20044;-66
2023/05/28 11:22:13;;;;;;;4.65;2.50;;;;;;;;;;5065444;28;20044;-63
2023/05/28 11:24:52;;;;;;;2.08;1.05;;;;;;;;;;5064106;28;20106;-64
2023/05/28 11:27:22;;;;;;;9.02;3.08;;;;;;;;;;5067740;28;20265;-64
2023/05/28 11:29:51;;;;;;;5.28;1.38;;;;;;;;;;5063544;28;20132;-67
2023/05/28 11:32:20;;;;;;;3.67;1.05;;;;;;;;;;5064220;28;20082;-65
2023/05/28 11:34:50;;;;;;;3.63;1.58;;;;;;;;;;5065838;28;20143;-64
2023/05/28 11:37:25;;;;;;;7.45;3.28;;;;;;;;;;5066301;28;20044;-64
2023/05/28 11:39:54;;;;;;;4.63;1.80;;;;;;;;;;5066299;28;20562;-65
2023/05/28 11:42:23;;;;;;;4.82;1.58;;;;;;;;;;5065017;28;20056;-66
2023/05/28 11:44:52;;;;;;;3.75;1.15;;;;;;;;;;5064878;28;20048;-63
2023/05/28 11:47:21;;;;;;;3.80;1.60;;;;;;;;;;5065297;28;20382;-63
2023/05/28 11:49:51;;;;;;;2.22;1.33;;;;;;;;;;5064514;28;20036;-67
2023/05/28 11:52:20;;;;;;;2.15;1.40;;;;;;;;;;5066660;28;20405;-63
2023/05/28 11:54:53;;;;;;;1.90;1.20;;;;;;;;;;5064483;28;20049;-65
2023/05/28 11:57:23;;;;;;;6.15;1.80;;;;;;;;;;5065768;28;20405;-64
2023/05/28 12:00:00;;;;;;;6.78;1.55;;;;;;;;;;5063829;28;20458;-65
2023/05/28 12:02:28;;;;;;;0.90;0.77;;;;;;;;;;5063914;28;20052;-65
2023/05/28 12:05:00;;;;;;;3.63;1.20;;;;;;;;;;5061992;28;20068;-63
2023/05/28 12:07:29;;;;;;;3.63;1.50;;;;;;;;;;5065855;28;20106;-64
2023/05/28 12:10:05;;;;;;;5.35;1.30;;;;;;;;;;5065653;28;20048;-64
2023/05/28 12:12:33;;;;;;;2.55;0.90;;;;;;;;;;5067337;28;20045;-64
2023/05/28 12:15:03;;;;;;;1.75;0.90;;;;;;;;;;5064065;28;20157;-66
2023/05/28 12:17:37;;;;;;;3.42;1.33;;;;;;;;;;5064672;28;20125;-66
2023/05/28 12:20:06;;;;;;;;;;;;;;;;;;5065644;28;20048;-65
2023/05/28 12:22:36;;;;;;;3.10;1.10;;;;;;;;;;5065915;28;20373;-64
2023/05/28 12:25:04;;;;;;;3.83;1.13;;;;;;;;;;5067255;28;20056;-65
2023/05/28 12:27:33;;;;;;;1.77;0.95;;;;;;;;;;5066085;28;21735;-64
2023/05/28 12:30:01;;;;;;;2.45;1.13;;;;;;;;;;5064947;28;20552;-64
2023/05/28 12:32:30;;;;;;;2.50;1.05;;;;;;;;;;5063783;28;20044;-68
2023/05/28 12:34:58;;;;;;;3.20;0.93;;;;;;;;;;5063478;28;20052;-64
2023/05/28 12:37:30;;;;;;;1.80;0.80;;;;;;;;;;5064691;28;20049;-67
2023/05/28 12:40:00;;;;;;;3.42;0.88;;;;;;;;;;5063779;28;20048;-65
2023/05/28 12:42:28;;;;;;;1.83;0.80;;;;;;;;;;5064051;28;20194;-64
2023/05/28 12:44:57;;;;;;;5.82;1.17;;;;;;;;;;5064649;28;20068;-64
2023/05/28 12:47:25;;;;;;;1.55;0.70;;;;;;;;;;5066604;28;20072;-64
2023/05/28 12:49:53;;;;;;;2.00;0.73;;;;;;;;;;5065270;28;20048;-66
2023/05/28 12:52:22;;;;;;;2.40;1.30;;;;;;;;;;5063384;28;20463;-65
2023/05/28 12:54:50;;;;;;;4.75;1.55;;;;;;;;;;5063374;28;20071;-63
2023/05/28 12:57:35;;;;;;;2.00;0.98;;;;;;;;;;5064143;28;20044;-63
2023/05/28 13:00:10;;;;;;;4.75;0.82;;;;;;;;;;5063082;28;20072;-65
2023/05/28 13:02:39;;;;;;;1.13;0.68;;;;;;;;;;5064443;28;20074;-64
2023/05/28 13:05:08;;;;;;;4.45;1.85;;;;;;;;;;5061654;28;20540;-64
2023/05/28 13:07:36;;;;;;;3.60;1.13;;;;;;;;;;5063322;28;20445;-63
2023/05/28 13:10:07;;;;;;;1.83;1.10;;;;;;;;;;5063646;28;20049;-64
2023/05/28 13:12:37;;;;;;;4.40;1.02;;;;;;;;;;5063654;28;20044;-68
2023/05/28 13:15:07;;;;;;;4.05;1.05;;;;;;;;;;5063786;28;20101;-66
2023/05/28 13:17:35;;;;;;;2.67;1.27;;;;;;;;;;5062900;28;20621;-64
2023/05/28 13:20:07;;;;;;;4.80;1.10;;;;;;;;;;5064022;28;20064;-64
2023/05/28 13:22:36;;;;;;;5.18;1.30;;;;;;;;;;5062049;28;20045;-63
2023/05/28 13:25:05;;;;;;;3.67;1.77;;;;;;;;;;5063112;28;20056;-65
2023/05/28 13:27:33;;;;;;;3.67;1.42;;;;;;;;;;5064105;28;20056;-64
2023/05/28 13:30:04;;;;;;;2.72;0.80;;;;;;;;;;5061520;28;20059;-64
2023/05/28 13:32:33;;;;;;;2.30;0.82;;;;;;;;;;5064352;28;20079;-63
2023/05/28 13:35:01;;;;;;;2.70;1.30;;;;;;;;;;5059886;28;20386;-66
2023/05/28 13:37:32;;;;;;;1.67;1.13;;;;;;;;;;5064065;28;20048;-67
2023/05/28 13:40:02;;;;;;;3.47;1.38;;;;;;;;;;5063343;28;20309;-64
2023/05/28 13:42:30;;;;;;;3.08;1.70;;;;;;;;;;5064550;28;20053;-63
2023/05/28 13:44:59;;;;;;;5.18;1.33;;;;;;;;;;5062293;28;20051;-63
2023/05/28 13:47:29;;;;;;;5.95;1.52;;;;;;;;;;5066559;28;20075;-64
2023/05/28 13:49:57;;;;;;;3.53;1.33;;;;;;;;;;5065402;28;20810;-64
2023/05/28 13:52:25;;;;;;;3.13;1.13;;;;;;;;;;5064211;28;20105;-64
2023/05/28 13:54:54;;;;;;;4.15;1.75;;;;;;;;;;5063373;28;20102;-64
2023/05/28 13:57:22;;;;;;;3.55;1.33;;;;;;;;;;5062263;28;20084;-68
2023/05/28 13:59:51;;;;;;;3.75;1.73;;;;;;;;;;5060874;28;20370;-67
2023/05/28 14:02:19;;;;;;;3.75;1.63;;;;;;;;;;5062311;28;20052;-64
2023/05/28 14:04:49;;;;;;;5.38;1.60;;;;;;;;;;5063369;28;20144;-63
2023/05/28 14:07:17;;;;;;;1.50;1.10;;;;;;;;;;5060607;28;20087;-64
2023/05/28 14:09:46;;;;;;;3.55;1.30;;;;;;;;;;5058392;28;20105;-63
2023/05/28 14:12:14;;;;;;;3.58;1.42;;;;;;;;;;5061741;28;20040;-65
2023/05/28 14:14:50;;;;;;;5.10;1.77;;;;;;;;;;5058817;28;20048;-65
2023/05/28 14:17:18;;;;;;;3.67;1.35;;;;;;;;;;5061267;28;20047;-68
2023/05/28 14:19:48;;;;;;;3.63;1.77;;;;;;;;;;5064404;28;20105;-63
2023/05/28 14:22:16;;;;;;;5.43;1.27;;;;;;;;;;5060876;28;20045;-65
2023/05/28 14:24:45;;;;;;;2.28;1.48;;;;;;;;;;5061910;28;20047;-65
2023/05/28 14:27:13;;;;;;;2.47;1.35;;;;;;;;;;5056383;28;20538;-64
2023/05/28 14:29:42;;;;;;;4.00;1.45;;;;;;;;;;5054135;28;20060;-65
2023/05/28 14:32:10;;;;;;;3.30;1.40;;;;;;;;;;5056954;28;20044;-63
2023/05/28 14:34:39;;;;;;;6.15;1.85;;;;;;;;;;5058754;28;20299;-65
2023/05/28 14:37:08;;;;;;;4.90;1.65;;;;;;;;;;5060151;28;20458;-64
2023/05/28 14:39:37;;;;;;;3.05;1.17;;;;;;;;;;5059883;28;20137;-67
2023/05/28 14:42:06;;;;;;;4.78;1.30;;;;;;;;;;5061152;28;20125;-64
2023/05/28 14:44:34;;;;;;;4.68;1.30;;;;;;;;;;5062286;28;20068;-66
2023/05/28 14:47:02;;;;;;;2.22;1.20;;;;;;;;;;5060133;28;20045;-63
2023/05/28 14:49:31;;;;;;;3.90;1.25;;;;;;;;;;5063617;28;20084;-66
2023/05/28 14:52:00;;;;;;;3.78;1.25;;;;;;;;;;5062084;28;20448;-64
2023/05/28 14:54:29;;;;;;;3.35;1.45;;;;;;;;;;5060775;28;20114;-64
2023/05/28 14:56:58;;;;;;;4.65;1.52;;;;;;;;;;5060219;28;20094;-64